sensor_id;sensor_type;location;lat;lon;timestamp;pressure;altitude;pressure_sealevel;temperature;humidity
42601;BME280;28229;48.856;9.088;2023-03-22T00:01:21;97790.63;;;9.02;81.34
42601;BME280;28229;48.856;9.088;2023-03-22T00:03:49;97788.41;;;8.99;82.17
42601;BME280;28229;48.856;9.088;2023-03-22T00:06:16;97784.22;;;8.91;83.16
42601;BME280;28229;48.856;9.088;2023-03-22T00:08:43;97787.06;;;8.83;83.81
42601;BME280;28229;48.856;9.088;2023-03-22T00:11:10;97789.31;;;8.80;84.15
42601;BME280;28229;48.856;9.088;2023-03-22T00:13:36;97787.47;;;8.80;84.14
42601;BME280;28229;48.856;9.088;2023-03-22T00:16:04;97783.28;;;8.72;84.68
42601;BME280;28229;48.856;9.088;2023-03-22T00:18:30;97786.75;;;8.66;84.79
42601;BME280;28229;48.856;9.088;2023-03-22T00:20:57;97782.91;;;8.69;84.76
42601;BME280;28229;48.856;9.088;2023-03-22T00:23:24;97782.31;;;8.67;84.82
42601;BME280;28229;48.856;9.088;2023-03-22T00:25:51;97781.72;;;8.58;85.07
42601;BME280;28229;48.856;9.088;2023-03-22T00:28:18;97780.16;;;8.50;85.33
42601;BME280;28229;48.856;9.088;2023-03-22T00:31:10;97773.91;;;8.38;86.32
42601;BME280;28229;48.856;9.088;2023-03-22T00:33:37;97773.53;;;8.34;86.31
42601;BME280;28229;48.856;9.088;2023-03-22T00:36:09;97777.56;;;8.44;85.85
42601;BME280;28229;48.856;9.088;2023-03-22T00:38:36;97779.34;;;8.36;85.92
42601;BME280;28229;48.856;9.088;2023-03-22T00:43:34;97776.53;;;8.31;86.41
42601;BME280;28229;48.856;9.088;2023-03-22T00:46:03;97772.75;;;8.27;86.55
42601;BME280;28229;48.856;9.088;2023-03-22T00:48:30;97774.31;;;8.28;86.23
42601;BME280;28229;48.856;9.088;2023-03-22T00:50:57;97764.25;;;8.32;86.17
42601;BME280;28229;48.856;9.088;2023-03-22T00:53:23;97760.63;;;8.26;86.45
42601;BME280;28229;48.856;9.088;2023-03-22T00:55:49;97758.22;;;8.25;86.45
42601;BME280;28229;48.856;9.088;2023-03-22T00:58:15;97765.09;;;8.19;86.94
42601;BME280;28229;48.856;9.088;2023-03-22T01:00:42;97753.41;;;8.15;87.31
42601;BME280;28229;48.856;9.088;2023-03-22T01:03:09;97755.44;;;8.13;87.29
42601;BME280;28229;48.856;9.088;2023-03-22T01:05:39;97751.00;;;8.13;86.99
42601;BME280;28229;48.856;9.088;2023-03-22T01:08:06;97750.59;;;8.16;86.84
42601;BME280;28229;48.856;9.088;2023-03-22T01:10:36;97746.38;;;8.09;87.02
42601;BME280;28229;48.856;9.088;2023-03-22T01:13:05;97741.94;;;8.09;86.99
42601;BME280;28229;48.856;9.088;2023-03-22T01:15:31;97738.09;;;8.05;87.28
42601;BME280;28229;48.856;9.088;2023-03-22T01:17:58;97737.31;;;8.05;87.00
42601;BME280;28229;48.856;9.088;2023-03-22T01:20:24;97729.06;;;8.08;86.94
42601;BME280;28229;48.856;9.088;2023-03-22T01:22:51;97732.88;;;7.98;87.63
42601;BME280;28229;48.856;9.088;2023-03-22T01:25:17;97735.09;;;7.95;87.65
42601;BME280;28229;48.856;9.088;2023-03-22T01:27:44;97728.06;;;7.89;87.83
42601;BME280;28229;48.856;9.088;2023-03-22T01:30:11;97723.44;;;7.91;87.95
42601;BME280;28229;48.856;9.088;2023-03-22T01:32:38;97722.63;;;7.90;88.03
42601;BME280;28229;48.856;9.088;2023-03-22T01:35:05;97718.41;;;7.89;87.92
42601;BME280;28229;48.856;9.088;2023-03-22T01:37:32;97711.75;;;7.93;87.64
42601;BME280;28229;48.856;9.088;2023-03-22T01:39:59;97712.38;;;7.89;88.00
42601;BME280;28229;48.856;9.088;2023-03-22T01:42:26;97710.53;;;7.89;87.64
42601;BME280;28229;48.856;9.088;2023-03-22T01:47:45;97706.72;;;7.85;87.37
42601;BME280;28229;48.856;9.088;2023-03-22T01:50:13;97706.34;;;7.81;87.45
42601;BME280;28229;48.856;9.088;2023-03-22T01:52:41;97713.59;;;7.73;87.42
42601;BME280;28229;48.856;9.088;2023-03-22T01:55:17;97713.41;;;7.68;87.72
42601;BME280;28229;48.856;9.088;2023-03-22T01:57:52;97710.00;;;7.60;88.32
42601;BME280;28229;48.856;9.088;2023-03-22T02:00:28;97712.22;;;7.50;88.64
42601;BME280;28229;48.856;9.088;2023-03-22T02:03:07;97707.78;;;7.44;88.66
42601;BME280;28229;48.856;9.088;2023-03-22T02:05:42;97707.59;;;7.26;89.62
42601;BME280;28229;48.856;9.088;2023-03-22T02:08:10;97715.25;;;7.20;90.00
42601;BME280;28229;48.856;9.088;2023-03-22T02:11:06;97705.19;;;7.17;89.75
42601;BME280;28229;48.856;9.088;2023-03-22T02:17:18;97702.34;;;7.12;89.42
42601;BME280;28229;48.856;9.088;2023-03-22T02:28:18;97695.13;;;7.01;89.50
42601;BME280;28229;48.856;9.088;2023-03-22T02:33:58;97683.03;;;6.86;90.56
42601;BME280;28229;48.856;9.088;2023-03-22T02:45:31;97680.97;;;6.75;91.58
42601;BME280;28229;48.856;9.088;2023-03-22T02:48:10;97687.84;;;6.76;91.75
42601;BME280;28229;48.856;9.088;2023-03-22T02:51:04;97685.38;;;6.68;92.25
42601;BME280;28229;48.856;9.088;2023-03-22T02:54:27;97686.41;;;6.67;92.38
42601;BME280;28229;48.856;9.088;2023-03-22T02:57:02;97691.22;;;6.63;92.21
42601;BME280;28229;48.856;9.088;2023-03-22T02:59:33;97687.38;;;6.53;93.18
42601;BME280;28229;48.856;9.088;2023-03-22T03:02:07;97684.56;;;6.61;92.69
42601;BME280;28229;48.856;9.088;2023-03-22T03:04:39;97674.91;;;6.55;93.10
42601;BME280;28229;48.856;9.088;2023-03-22T03:07:08;97681.75;;;6.56;93.21
42601;BME280;28229;48.856;9.088;2023-03-22T03:09:39;97684.00;;;6.65;93.16
42601;BME280;28229;48.856;9.088;2023-03-22T03:12:32;97689.22;;;6.65;92.90
42601;BME280;28229;48.856;9.088;2023-03-22T03:14:59;97684.00;;;6.65;92.67
42601;BME280;28229;48.856;9.088;2023-03-22T03:17:40;97682.16;;;6.59;92.71
42601;BME280;28229;48.856;9.088;2023-03-22T03:20:23;97688.78;;;6.55;92.81
42601;BME280;28229;48.856;9.088;2023-03-22T03:25:50;97687.78;;;6.56;93.08
42601;BME280;28229;48.856;9.088;2023-03-22T03:28:28;97687.38;;;6.53;93.13
42601;BME280;28229;48.856;9.088;2023-03-22T03:31:17;97692.41;;;6.54;93.26
42601;BME280;28229;48.856;9.088;2023-03-22T03:34:14;97690.00;;;6.53;93.46
42601;BME280;28229;48.856;9.088;2023-03-22T03:36:47;97686.97;;;6.56;93.70
42601;BME280;28229;48.856;9.088;2023-03-22T03:39:17;97684.38;;;6.62;93.33
42601;BME280;28229;48.856;9.088;2023-03-22T03:41:47;97685.38;;;6.68;92.86
42601;BME280;28229;48.856;9.088;2023-03-22T03:44:17;97689.03;;;6.67;92.71
42601;BME280;28229;48.856;9.088;2023-03-22T03:46:45;97685.81;;;6.65;92.91
42601;BME280;28229;48.856;9.088;2023-03-22T03:49:12;97691.84;;;6.72;92.60
42601;BME280;28229;48.856;9.088;2023-03-22T03:51:50;97689.25;;;6.72;92.16
42601;BME280;28229;48.856;9.088;2023-03-22T03:54:18;97692.47;;;6.74;92.32
42601;BME280;28229;48.856;9.088;2023-03-22T03:56:45;97687.00;;;6.69;92.16
42601;BME280;28229;48.856;9.088;2023-03-22T03:59:16;97688.81;;;6.75;91.55
42601;BME280;28229;48.856;9.088;2023-03-22T04:01:46;97684.97;;;6.64;91.61
42601;BME280;28229;48.856;9.088;2023-03-22T04:04:23;97683.78;;;6.60;91.63
42601;BME280;28229;48.856;9.088;2023-03-22T04:07:00;97685.19;;;6.63;91.65
42601;BME280;28229;48.856;9.088;2023-03-22T04:09:35;97689.03;;;6.67;91.29
42601;BME280;28229;48.856;9.088;2023-03-22T04:12:27;97690.41;;;6.63;91.30
42601;BME280;28229;48.856;9.088;2023-03-22T04:15:11;97685.38;;;6.68;91.13
42601;BME280;28229;48.856;9.088;2023-03-22T04:17:38;97680.16;;;6.68;90.95
42601;BME280;28229;48.856;9.088;2023-03-22T04:20:09;97671.31;;;6.62;91.20
42601;BME280;28229;48.856;9.088;2023-03-22T04:22:37;97678.16;;;6.63;91.03
42601;BME280;28229;48.856;9.088;2023-03-22T04:25:05;97676.72;;;6.61;91.18
42601;BME280;28229;48.856;9.088;2023-03-22T04:27:41;97675.56;;;6.63;90.77
42601;BME280;28229;48.856;9.088;2023-03-22T04:30:13;97672.91;;;6.57;90.93
42601;BME280;28229;48.856;9.088;2023-03-22T04:33:05;97667.69;;;6.57;90.78
42601;BME280;28229;48.856;9.088;2023-03-22T04:35:50;97658.03;;;6.57;90.84
42601;BME280;28229;48.856;9.088;2023-03-22T04:38:25;97662.47;;;6.57;90.61
42601;BME280;28229;48.856;9.088;2023-03-22T04:40:52;97663.25;;;6.51;91.28
42601;BME280;28229;48.856;9.088;2023-03-22T04:43:30;97653.00;;;6.56;90.64
42601;BME280;28229;48.856;9.088;2023-03-22T04:46:02;97645.16;;;6.62;90.45
42601;BME280;28229;48.856;9.088;2023-03-22T04:48:37;97653.25;;;6.74;89.80
42601;BME280;28229;48.856;9.088;2023-03-22T04:51:07;97655.06;;;6.80;89.28
42601;BME280;28229;48.856;9.088;2023-03-22T04:53:39;97645.19;;;6.82;88.77
42601;BME280;28229;48.856;9.088;2023-03-22T04:56:09;97643.63;;;6.88;88.40
42601;BME280;28229;48.856;9.088;2023-03-22T04:58:37;97642.78;;;6.88;88.24
42601;BME280;28229;48.856;9.088;2023-03-22T05:01:09;97644.41;;;6.89;88.32
42601;BME280;28229;48.856;9.088;2023-03-22T05:03:38;97642.00;;;6.87;88.20
42601;BME280;28229;48.856;9.088;2023-03-22T05:06:06;97633.56;;;6.92;87.82
42601;BME280;28229;48.856;9.088;2023-03-22T05:08:42;97639.38;;;6.87;87.79
42601;BME280;28229;48.856;9.088;2023-03-22T05:11:12;97636.38;;;6.90;87.33
42601;BME280;28229;48.856;9.088;2023-03-22T05:13:38;97643.22;;;6.84;87.79
42601;BME280;28229;48.856;9.088;2023-03-22T05:16:05;97649.63;;;6.89;87.35
42601;BME280;28229;48.856;9.088;2023-03-22T05:18:42;97645.19;;;6.82;87.27
42601;BME280;28229;48.856;9.088;2023-03-22T05:21:13;97641.97;;;6.80;87.65
42601;BME280;28229;48.856;9.088;2023-03-22T05:23:44;97649.59;;;6.75;87.60
42601;BME280;28229;48.856;9.088;2023-03-22T05:26:11;97645.19;;;6.82;87.27
42601;BME280;28229;48.856;9.088;2023-03-22T05:28:42;97644.41;;;6.89;86.78
42601;BME280;28229;48.856;9.088;2023-03-22T05:31:25;97645.19;;;6.82;86.97
42601;BME280;28229;48.856;9.088;2023-03-22T05:33:57;97645.19;;;6.89;86.65
42601;BME280;28229;48.856;9.088;2023-03-22T05:36:27;97636.34;;;6.83;86.85
42601;BME280;28229;48.856;9.088;2023-03-22T05:39:18;97639.38;;;6.87;86.64
42601;BME280;28229;48.856;9.088;2023-03-22T05:41:45;97641.59;;;6.90;86.30
42601;BME280;28229;48.856;9.088;2023-03-22T05:44:11;97644.59;;;6.87;86.33
42601;BME280;28229;48.856;9.088;2023-03-22T05:46:44;97649.84;;;6.87;86.78
42601;BME280;28229;48.856;9.088;2023-03-22T05:49:29;97649.03;;;6.86;86.52
42601;BME280;28229;48.856;9.088;2023-03-22T05:51:56;97648.00;;;6.88;86.50
42601;BME280;28229;48.856;9.088;2023-03-22T05:54:28;97654.25;;;6.86;86.54
42601;BME280;28229;48.856;9.088;2023-03-22T05:56:54;97654.84;;;6.82;86.68
42601;BME280;28229;48.856;9.088;2023-03-22T05:59:21;97646.81;;;6.90;86.19
42601;BME280;28229;48.856;9.088;2023-03-22T06:01:47;97652.84;;;6.91;85.96
42601;BME280;28229;48.856;9.088;2023-03-22T06:04:20;97653.44;;;6.93;85.37
42601;BME280;28229;48.856;9.088;2023-03-22T06:07:07;97654.47;;;6.92;85.53
42601;BME280;28229;48.856;9.088;2023-03-22T06:09:59;97665.13;;;6.97;85.60
42601;BME280;28229;48.856;9.088;2023-03-22T06:12:29;97664.50;;;6.95;85.77
42601;BME280;28229;48.856;9.088;2023-03-22T06:15:02;97657.69;;;6.94;85.92
42601;BME280;28229;48.856;9.088;2023-03-22T06:17:36;97654.47;;;7.05;85.46
42601;BME280;28229;48.856;9.088;2023-03-22T06:20:04;97661.09;;;7.08;85.17
42601;BME280;28229;48.856;9.088;2023-03-22T06:22:37;97661.09;;;7.08;85.66
42601;BME280;28229;48.856;9.088;2023-03-22T06:25:05;97667.75;;;7.17;85.28
42601;BME280;28229;48.856;9.088;2023-03-22T06:27:39;97668.38;;;7.26;85.20
42601;BME280;28229;48.856;9.088;2023-03-22T06:30:07;97670.75;;;7.34;84.91
42601;BME280;28229;48.856;9.088;2023-03-22T06:32:44;97667.34;;;7.33;85.21
42601;BME280;28229;48.856;9.088;2023-03-22T06:35:10;97670.56;;;7.42;85.02
42601;BME280;28229;48.856;9.088;2023-03-22T06:37:37;97672.34;;;7.48;84.91
42601;BME280;28229;48.856;9.088;2023-03-22T06:40:04;97677.78;;;7.53;85.03
42601;BME280;28229;48.856;9.088;2023-03-22T06:42:30;97677.53;;;7.68;84.40
42601;BME280;28229;48.856;9.088;2023-03-22T06:45:06;97685.59;;;7.80;83.55
42601;BME280;28229;48.856;9.088;2023-03-22T06:47:36;97687.00;;;7.82;84.02
42601;BME280;28229;48.856;9.088;2023-03-22T06:50:34;97679.88;;;7.96;83.44
42601;BME280;28229;48.856;9.088;2023-03-22T06:53:10;97683.28;;;8.04;83.72
42601;BME280;28229;48.856;9.088;2023-03-22T06:55:37;97686.50;;;8.12;83.18
42601;BME280;28229;48.856;9.088;2023-03-22T06:58:22;97676.97;;;8.25;82.62
42601;BME280;28229;48.856;9.088;2023-03-22T07:00:48;97672.47;;;8.38;82.02
42601;BME280;28229;48.856;9.088;2023-03-22T07:03:17;97673.88;;;8.48;82.56
42601;BME280;28229;48.856;9.088;2023-03-22T07:05:46;97670.75;;;8.64;81.59
42601;BME280;28229;48.856;9.088;2023-03-22T07:08:13;97675.22;;;8.89;81.39
42601;BME280;28229;48.856;9.088;2023-03-22T07:10:49;97671.72;;;9.02;79.50
42601;BME280;28229;48.856;9.088;2023-03-22T07:13:16;97687.75;;;9.19;77.51
42601;BME280;28229;48.856;9.088;2023-03-22T07:15:42;97677.78;;;9.27;75.89
42601;BME280;28229;48.856;9.088;2023-03-22T07:18:17;97669.56;;;9.42;76.31
42601;BME280;28229;48.856;9.088;2023-03-22T07:20:44;97674.72;;;9.56;74.22
42601;BME280;28229;48.856;9.088;2023-03-22T07:23:11;97673.97;;;9.67;73.60
42601;BME280;28229;48.856;9.088;2023-03-22T07:25:46;97671.81;;;9.82;72.15
42601;BME280;28229;48.856;9.088;2023-03-22T07:28:21;97671.81;;;10.01;72.09
42601;BME280;28229;48.856;9.088;2023-03-22T07:30:47;97670.41;;;10.17;69.67
42601;BME280;28229;48.856;9.088;2023-03-22T07:33:14;97671.88;;;10.31;69.96
42601;BME280;28229;48.856;9.088;2023-03-22T07:35:41;97672.78;;;10.55;67.86
42601;BME280;28229;48.856;9.088;2023-03-22T07:38:08;97665.84;;;10.73;66.92
42601;BME280;28229;48.856;9.088;2023-03-22T07:40:35;97665.34;;;10.94;66.71
42601;BME280;28229;48.856;9.088;2023-03-22T07:43:02;97661.47;;;11.09;65.89
42601;BME280;28229;48.856;9.088;2023-03-22T07:45:50;97674.81;;;11.37;65.57
42601;BME280;28229;48.856;9.088;2023-03-22T07:48:35;97673.31;;;11.53;64.85
42601;BME280;28229;48.856;9.088;2023-03-22T07:51:31;97672.28;;;11.66;64.67
42601;BME280;28229;48.856;9.088;2023-03-22T07:53:57;97670.09;;;11.75;63.20
42601;BME280;28229;48.856;9.088;2023-03-22T07:56:23;97667.69;;;11.73;62.08
42601;BME280;28229;48.856;9.088;2023-03-22T07:58:50;97676.59;;;11.84;63.13
42601;BME280;28229;48.856;9.088;2023-03-22T08:01:16;97680.84;;;11.97;63.31
42601;BME280;28229;48.856;9.088;2023-03-22T08:03:52;97679.22;;;12.08;62.26
42601;BME280;28229;48.856;9.088;2023-03-22T08:06:40;97676.69;;;12.25;61.91
42601;BME280;28229;48.856;9.088;2023-03-22T08:09:07;97675.72;;;12.31;61.00
42601;BME280;28229;48.856;9.088;2023-03-22T08:11:34;97675.81;;;12.36;60.95
42601;BME280;28229;48.856;9.088;2023-03-22T08:14:01;97676.03;;;12.46;60.33
42601;BME280;28229;48.856;9.088;2023-03-22T08:16:30;97671.00;;;12.62;60.74
42601;BME280;28229;48.856;9.088;2023-03-22T08:18:59;97679.59;;;12.69;58.81
42601;BME280;28229;48.856;9.088;2023-03-22T08:21:27;97670.81;;;12.80;59.02
42601;BME280;28229;48.856;9.088;2023-03-22T08:23:55;97678.25;;;12.83;58.07
42601;BME280;28229;48.856;9.088;2023-03-22T08:26:21;97676.91;;;12.98;57.69
42601;BME280;28229;48.856;9.088;2023-03-22T08:28:54;97670.59;;;12.99;58.25
42601;BME280;28229;48.856;9.088;2023-03-22T08:31:22;97677.25;;;13.18;58.05
42601;BME280;28229;48.856;9.088;2023-03-22T08:33:50;97679.50;;;13.26;56.75
42601;BME280;28229;48.856;9.088;2023-03-22T08:36:19;97669.25;;;13.30;57.14
42601;BME280;28229;48.856;9.088;2023-03-22T08:38:58;97669.25;;;13.47;57.14
42601;BME280;28229;48.856;9.088;2023-03-22T08:41:35;97667.78;;;13.56;56.03
42601;BME280;28229;48.856;9.088;2023-03-22T08:44:01;97668.75;;;13.67;55.42
42601;BME280;28229;48.856;9.088;2023-03-22T08:46:30;97675.47;;;13.75;54.67
42601;BME280;28229;48.856;9.088;2023-03-22T08:48:56;97667.25;;;13.93;56.15
42601;BME280;28229;48.856;9.088;2023-03-22T08:51:31;97670.03;;;14.03;54.65
42601;BME280;28229;48.856;9.088;2023-03-22T08:54:20;97666.38;;;14.09;54.53
42601;BME280;28229;48.856;9.088;2023-03-22T08:56:52;97662.31;;;14.24;54.22
42601;BME280;28229;48.856;9.088;2023-03-22T08:59:30;97658.75;;;14.35;54.00
42601;BME280;28229;48.856;9.088;2023-03-22T09:02:17;97659.09;;;14.66;52.95
42601;BME280;28229;48.856;9.088;2023-03-22T09:04:43;97657.00;;;14.68;51.72
42601;BME280;28229;48.856;9.088;2023-03-22T09:07:09;97648.59;;;14.76;52.05
42601;BME280;28229;48.856;9.088;2023-03-22T09:09:36;97645.94;;;14.76;51.80
42601;BME280;28229;48.856;9.088;2023-03-22T09:12:04;97649.91;;;15.06;53.33
42601;BME280;28229;48.856;9.088;2023-03-22T09:14:34;97646.66;;;14.99;50.77
42601;BME280;28229;48.856;9.088;2023-03-22T09:17:02;97640.88;;;15.02;51.51
42601;BME280;28229;48.856;9.088;2023-03-22T09:19:29;97645.81;;;15.26;50.28
42601;BME280;28229;48.856;9.088;2023-03-22T09:21:56;97645.38;;;15.39;50.24
42601;BME280;28229;48.856;9.088;2023-03-22T09:24:40;97635.44;;;15.67;50.02
42601;BME280;28229;48.856;9.088;2023-03-22T09:27:12;97631.84;;;15.78;49.93
42601;BME280;28229;48.856;9.088;2023-03-22T09:29:38;97640.63;;;15.84;49.38
42601;BME280;28229;48.856;9.088;2023-03-22T09:32:10;97639.84;;;15.93;48.45
42601;BME280;28229;48.856;9.088;2023-03-22T09:34:38;97629.38;;;16.24;47.47
42601;BME280;28229;48.856;9.088;2023-03-22T09:37:05;97635.97;;;16.16;46.88
42601;BME280;28229;48.856;9.088;2023-03-22T09:39:46;97638.28;;;15.92;47.58
42601;BME280;28229;48.856;9.088;2023-03-22T09:42:38;97646.78;;;15.94;48.01
42601;BME280;28229;48.856;9.088;2023-03-22T09:45:20;97631.66;;;16.00;46.82
42601;BME280;28229;48.856;9.088;2023-03-22T09:47:50;97634.69;;;16.29;46.67
42601;BME280;28229;48.856;9.088;2023-03-22T09:50:23;97621.44;;;16.29;46.12
42601;BME280;28229;48.856;9.088;2023-03-22T09:52:52;97624.63;;;16.42;46.24
42601;BME280;28229;48.856;9.088;2023-03-22T09:55:20;97624.69;;;16.78;46.50
42601;BME280;28229;48.856;9.088;2023-03-22T09:58:12;97614.59;;;17.00;44.73
42601;BME280;28229;48.856;9.088;2023-03-22T10:00:55;97610.31;;;17.35;45.19
42601;BME280;28229;48.856;9.088;2023-03-22T10:06:22;97607.69;;;17.15;45.04
42601;BME280;28229;48.856;9.088;2023-03-22T10:14:30;97596.00;;;16.74;45.48
42601;BME280;28229;48.856;9.088;2023-03-22T10:17:00;97588.00;;;16.69;45.88
42601;BME280;28229;48.856;9.088;2023-03-22T10:22:09;97599.22;;;16.87;45.78
42601;BME280;28229;48.856;9.088;2023-03-22T10:24:42;97595.47;;;16.98;44.97
42601;BME280;28229;48.856;9.088;2023-03-22T10:27:15;97594.13;;;17.31;44.69
42601;BME280;28229;48.856;9.088;2023-03-22T10:29:46;97588.47;;;17.48;44.56
42601;BME280;28229;48.856;9.088;2023-03-22T10:32:21;97581.47;;;17.73;44.67
42601;BME280;28229;48.856;9.088;2023-03-22T10:34:51;97571.50;;;18.15;43.12
42601;BME280;28229;48.856;9.088;2023-03-22T10:37:23;97577.28;;;18.27;42.59
42601;BME280;28229;48.856;9.088;2023-03-22T10:39:54;97576.25;;;18.18;43.82
42601;BME280;28229;48.856;9.088;2023-03-22T10:42:27;97573.47;;;17.94;42.74
42601;BME280;28229;48.856;9.088;2023-03-22T10:45:04;97570.66;;;18.19;43.50
42601;BME280;28229;48.856;9.088;2023-03-22T10:47:35;97569.88;;;18.58;42.66
42601;BME280;28229;48.856;9.088;2023-03-22T10:50:14;97566.47;;;18.87;42.41
42601;BME280;28229;48.856;9.088;2023-03-22T10:52:48;97561.50;;;19.05;40.89
42601;BME280;28229;48.856;9.088;2023-03-22T10:55:16;97566.28;;;19.08;40.39
42601;BME280;28229;48.856;9.088;2023-03-22T10:58:11;97567.50;;;18.91;40.88
42601;BME280;28229;48.856;9.088;2023-03-22T11:00:57;97565.03;;;18.60;41.37
42601;BME280;28229;48.856;9.088;2023-03-22T11:03:36;97554.88;;;18.68;41.00
42601;BME280;28229;48.856;9.088;2023-03-22T11:08:49;97556.00;;;18.96;41.10
42601;BME280;28229;48.856;9.088;2023-03-22T11:11:31;97551.63;;;19.05;41.10
42601;BME280;28229;48.856;9.088;2023-03-22T11:14:13;97552.78;;;19.23;40.79
42601;BME280;28229;48.856;9.088;2023-03-22T11:16:43;97546.25;;;19.39;39.92
42601;BME280;28229;48.856;9.088;2023-03-22T11:19:28;97543.25;;;19.65;40.40
42601;BME280;28229;48.856;9.088;2023-03-22T11:21:58;97547.63;;;19.80;39.69
42601;BME280;28229;48.856;9.088;2023-03-22T11:24:26;97541.38;;;20.09;39.81
42601;BME280;28229;48.856;9.088;2023-03-22T11:27:31;97537.47;;;20.39;38.96
42601;BME280;28229;48.856;9.088;2023-03-22T11:30:07;97541.34;;;20.66;38.79
42601;BME280;28229;48.856;9.088;2023-03-22T11:32:42;97534.28;;;20.89;38.88
42601;BME280;28229;48.856;9.088;2023-03-22T11:35:21;97534.25;;;21.22;37.81
42601;BME280;28229;48.856;9.088;2023-03-22T11:37:50;97531.09;;;21.47;37.26
42601;BME280;28229;48.856;9.088;2023-03-22T11:40:27;97533.38;;;21.54;37.30
42601;BME280;28229;48.856;9.088;2023-03-22T11:43:01;97537.34;;;21.57;38.33
42601;BME280;28229;48.856;9.088;2023-03-22T11:45:34;97540.31;;;21.41;37.88
42601;BME280;28229;48.856;9.088;2023-03-22T11:48:05;97534.22;;;21.08;37.77
42601;BME280;28229;48.856;9.088;2023-03-22T11:50:35;97521.97;;;21.07;37.17
42601;BME280;28229;48.856;9.088;2023-03-22T11:53:03;97518.75;;;21.05;37.81
42601;BME280;28229;48.856;9.088;2023-03-22T11:55:34;97517.16;;;20.90;37.69
42601;BME280;28229;48.856;9.088;2023-03-22T11:58:02;97521.78;;;20.70;39.93
42601;BME280;28229;48.856;9.088;2023-03-22T12:00:43;97513.25;;;20.68;39.75
42601;BME280;28229;48.856;9.088;2023-03-22T12:03:19;97515.56;;;20.75;38.83
42601;BME280;28229;48.856;9.088;2023-03-22T12:05:48;97507.47;;;20.80;39.72
42601;BME280;28229;48.856;9.088;2023-03-22T12:10:52;97503.94;;;20.66;39.07
42601;BME280;28229;48.856;9.088;2023-03-22T12:13:26;97505.78;;;20.84;37.12
42601;BME280;28229;48.856;9.088;2023-03-22T12:15:57;97504.59;;;20.90;36.77
42601;BME280;28229;48.856;9.088;2023-03-22T12:18:29;97499.84;;;20.87;36.44
42601;BME280;28229;48.856;9.088;2023-03-22T12:21:00;97490.56;;;21.13;36.31
42601;BME280;28229;48.856;9.088;2023-03-22T12:23:28;97494.13;;;21.22;36.04
42601;BME280;28229;48.856;9.088;2023-03-22T12:28:32;97487.41;;;21.52;34.02
42601;BME280;28229;48.856;9.088;2023-03-22T12:31:00;97498.09;;;21.52;34.00
42601;BME280;28229;48.856;9.088;2023-03-22T12:33:43;97488.56;;;21.60;34.15
42601;BME280;28229;48.856;9.088;2023-03-22T12:36:16;97478.66;;;21.60;34.62
42601;BME280;28229;48.856;9.088;2023-03-22T12:38:53;97484.00;;;21.60;35.14
42601;BME280;28229;48.856;9.088;2023-03-22T12:41:32;97476.69;;;21.52;34.25
42601;BME280;28229;48.856;9.088;2023-03-22T12:44:23;97478.16;;;21.44;34.45
42601;BME280;28229;48.856;9.088;2023-03-22T12:46:55;97467.25;;;21.55;35.01
42601;BME280;28229;48.856;9.088;2023-03-22T12:49:26;97466.56;;;21.49;30.65
42601;BME280;28229;48.856;9.088;2023-03-22T12:52:01;97464.41;;;21.23;30.35
42601;BME280;28229;48.856;9.088;2023-03-22T12:54:29;97470.44;;;21.43;30.40
42601;BME280;28229;48.856;9.088;2023-03-22T12:56:58;97472.50;;;21.60;30.58
42601;BME280;28229;48.856;9.088;2023-03-22T12:59:29;97453.25;;;21.72;29.83
42601;BME280;28229;48.856;9.088;2023-03-22T13:02:00;97460.41;;;21.99;28.88
42601;BME280;28229;48.856;9.088;2023-03-22T13:04:48;97470.03;;;22.22;29.24
42601;BME280;28229;48.856;9.088;2023-03-22T13:09:59;97451.09;;;22.64;28.81
42601;BME280;28229;48.856;9.088;2023-03-22T13:12:31;97446.00;;;22.54;28.53
42601;BME280;28229;48.856;9.088;2023-03-22T13:15:28;97454.78;;;21.86;28.74
42601;BME280;28229;48.856;9.088;2023-03-22T13:17:56;97454.09;;;21.44;28.67
42601;BME280;28229;48.856;9.088;2023-03-22T13:20:25;97448.44;;;21.18;29.66
42601;BME280;28229;48.856;9.088;2023-03-22T13:30:21;97430.09;;;21.53;29.39
42601;BME280;28229;48.856;9.088;2023-03-22T13:32:50;97447.72;;;21.40;30.77
42601;BME280;28229;48.856;9.088;2023-03-22T13:35:25;97427.16;;;21.13;28.88
42601;BME280;28229;48.856;9.088;2023-03-22T13:37:59;97428.66;;;21.05;30.28
42601;BME280;28229;48.856;9.088;2023-03-22T13:59:23;97401.81;;;22.42;27.93
42601;BME280;28229;48.856;9.088;2023-03-22T14:05:01;97397.66;;;22.36;28.39
42601;BME280;28229;48.856;9.088;2023-03-22T14:07:41;97402.88;;;22.19;28.69
42601;BME280;28229;48.856;9.088;2023-03-22T14:10:19;97391.63;;;21.63;29.12
42601;BME280;28229;48.856;9.088;2023-03-22T14:15:47;97391.41;;;20.81;30.37
42601;BME280;28229;48.856;9.088;2023-03-22T14:18:29;97391.13;;;20.97;30.81
42601;BME280;28229;48.856;9.088;2023-03-22T14:20:59;97392.84;;;20.60;30.28
42601;BME280;28229;48.856;9.088;2023-03-22T14:23:29;97392.66;;;20.56;30.22
42601;BME280;28229;48.856;9.088;2023-03-22T14:26:06;97387.84;;;20.72;30.87
42601;BME280;28229;48.856;9.088;2023-03-22T14:28:37;97375.63;;;20.52;30.41
42601;BME280;28229;48.856;9.088;2023-03-22T14:31:13;97378.59;;;20.50;30.99
42601;BME280;28229;48.856;9.088;2023-03-22T14:33:41;97387.69;;;20.49;31.09
42601;BME280;28229;48.856;9.088;2023-03-22T14:36:12;97377.00;;;20.49;32.18
42601;BME280;28229;48.856;9.088;2023-03-22T14:38:40;97371.75;;;20.44;31.95
42601;BME280;28229;48.856;9.088;2023-03-22T14:41:18;97369.06;;;20.44;30.93
42601;BME280;28229;48.856;9.088;2023-03-22T14:43:46;97372.94;;;20.38;31.34
42601;BME280;28229;48.856;9.088;2023-03-22T14:46:22;97374.22;;;20.54;31.60
42601;BME280;28229;48.856;9.088;2023-03-22T14:48:52;97366.25;;;20.82;31.28
42601;BME280;28229;48.856;9.088;2023-03-22T14:51:22;97378.53;;;20.83;30.99
42601;BME280;28229;48.856;9.088;2023-03-22T14:53:50;97371.28;;;20.98;31.51
42601;BME280;28229;48.856;9.088;2023-03-22T14:56:22;97373.47;;;21.09;30.46
42601;BME280;28229;48.856;9.088;2023-03-22T14:58:53;97359.41;;;21.18;31.07
42601;BME280;28229;48.856;9.088;2023-03-22T15:01:29;97371.97;;;21.17;30.98